Terminal Aerodrome Forecast
Issued by NWS Bismarck, ND

Home | Current Version | Previous Version | Graphics & Text | Print | Product List | Glossary On
Versions: 1 2 3 4 5 6 7 8 9 10 11 12
000
FTUS43 KBIS 260522
TAFISN
TAF
KISN 260522Z 2606/2706 03004KT P6SM BKN045
     FM261000 VRB03KT P6SM SCT120
     FM261400 06005KT P6SM BKN150
     FM262300 08011KT P6SM SCT200=

USA.gov is the U.S. government's official web portal to all federal, state and local government web resources and services.